Time;durP1;ratioP1;P1;durP2;ratioP2;P2;SDS_P1;SDS_P2;PMS_P1;PMS_P2;Temp;Humidity;BMP_temperature;BMP_pressure;BME280_temperature;BME280_humidity;BME280_pressure;Samples;Min_cycle;Max_cycle;Signal;HPM_P1;HPM_P2
2022/05/13 00:01:31;;;;;;;8.47;4.40;;;;;;;;;;5038016;28;20204;-74
2022/05/13 00:03:58;;;;;;;10.57;5.10;;;;;;;;;;5039064;28;20247;-74
2022/05/13 00:06:25;;;;;;;10.87;4.93;;;;;;;;;;5036911;28;20219;-74
2022/05/13 00:08:52;;;;;;;12.13;4.77;;;;;;;;;;5036210;28;20286;-74
2022/05/13 00:11:20;;;;;;;9.43;4.53;;;;;;;;;;5035803;28;20458;-74
2022/05/13 00:38:17;;;;;;;8.93;4.80;;;;;;;;;;5038929;28;20249;-74
2022/05/13 00:40:46;;;;;;;8.87;4.67;;;;;;;;;;5037694;28;20199;-75
2022/05/13 00:43:14;;;;;;;7.70;4.20;;;;;;;;;;5040982;28;20323;-75
2022/05/13 00:45:41;;;;;;;9.67;4.50;;;;;;;;;;5035664;28;20656;-74
2022/05/13 00:48:09;;;;;;;7.83;4.70;;;;;;;;;;5039189;28;20250;-74
2022/05/13 00:50:38;;;;;;;7.43;3.93;;;;;;;;;;5045064;28;20214;-75
2022/05/13 00:53:05;;;;;;;9.80;4.83;;;;;;;;;;5037237;28;20206;-75
2022/05/13 00:55:35;;;;;;;9.57;4.87;;;;;;;;;;5040769;28;20210;-74
2022/05/13 00:58:02;;;;;;;10.70;4.17;;;;;;;;;;5038110;28;20231;-73
2022/05/13 01:00:30;;;;;;;6.80;4.23;;;;;;;;;;5040178;28;20203;-73
2022/05/13 01:02:57;;;;;;;8.77;4.67;;;;;;;;;;5036097;28;20203;-74
2022/05/13 01:05:24;;;;;;;10.03;4.30;;;;;;;;;;5040669;28;20202;-75
2022/05/13 01:07:52;;;;;;;7.63;4.43;;;;;;;;;;5036645;28;20223;-74
2022/05/13 01:10:21;;;;;;;10.47;4.47;;;;;;;;;;5040208;28;20206;-75
2022/05/13 01:12:50;;;;;;;11.70;4.47;;;;;;;;;;5038072;28;20314;-75
2022/05/13 01:15:19;;;;;;;9.93;4.67;;;;;;;;;;5039117;28;20287;-74
2022/05/13 01:20:33;;;;;;;9.10;4.97;;;;;;;;;;5037925;28;20349;-75
2022/05/13 01:23:02;;;;;;;7.60;4.07;;;;;;;;;;5039640;28;20199;-74
2022/05/13 01:25:33;;;;;;;8.70;4.33;;;;;;;;;;5041795;28;20661;-75
2022/05/13 01:28:08;;;;;;;9.33;4.20;;;;;;;;;;5038304;28;20716;-75
2022/05/13 01:30:35;;;;;;;11.60;4.50;;;;;;;;;;5039295;28;20572;-75
2022/05/13 01:33:03;;;;;;;11.03;4.50;;;;;;;;;;5039625;28;20211;-74
2022/05/13 01:35:30;;;;;;;7.43;4.53;;;;;;;;;;5041939;28;20231;-75
2022/05/13 01:37:57;;;;;;;8.57;4.60;;;;;;;;;;5041560;28;20318;-75
2022/05/13 01:40:25;;;;;;;6.97;4.13;;;;;;;;;;5038424;28;20560;-75
2022/05/13 01:42:53;;;;;;;8.90;4.20;;;;;;;;;;5042208;28;20295;-75
2022/05/13 01:45:20;;;;;;;10.00;3.87;;;;;;;;;;5043173;28;20249;-75
2022/05/13 01:47:47;;;;;;;7.93;4.60;;;;;;;;;;5042383;28;20729;-74
2022/05/13 01:50:14;;;;;;;8.47;4.30;;;;;;;;;;5042083;28;20314;-75
2022/05/13 01:52:41;;;;;;;9.20;4.03;;;;;;;;;;5043436;28;20233;-75
2022/05/13 01:55:09;;;;;;;14.27;4.60;;;;;;;;;;5033791;28;20561;-73
2022/05/13 01:57:38;;;;;;;7.10;4.47;;;;;;;;;;5033989;28;20791;-74
2022/05/13 02:00:05;;;;;;;8.90;4.10;;;;;;;;;;5035101;28;20736;-75
2022/05/13 02:03:44;;;;;;;11.60;4.00;;;;;;;;;;5039046;28;20204;-75
2022/05/13 02:05:19;;;;;;;10.87;4.53;;;;;;;;;;5044640;28;20234;-75
2022/05/13 02:07:46;;;;;;;12.73;4.30;;;;;;;;;;5030395;28;20481;-74
2022/05/13 02:10:13;;;;;;;8.40;4.30;;;;;;;;;;5033281;28;20233;-75
2022/05/13 02:12:42;;;;;;;10.00;4.53;;;;;;;;;;5034397;28;20202;-75
2022/05/13 02:15:10;;;;;;;10.63;4.10;;;;;;;;;;5034000;28;20642;-74
2022/05/13 02:17:37;;;;;;;8.63;4.07;;;;;;;;;;5033025;28;20239;-76
2022/05/13 02:20:04;;;;;;;14.37;4.47;;;;;;;;;;5032475;28;20265;-74
2022/05/13 02:22:32;;;;;;;10.40;4.73;;;;;;;;;;5035934;28;20521;-75
2022/05/13 02:24:59;;;;;;;9.73;4.37;;;;;;;;;;5031718;28;20230;-75
2022/05/13 02:27:26;;;;;;;8.67;4.03;;;;;;;;;;5037366;28;20518;-75
2022/05/13 02:29:55;;;;;;;8.80;4.20;;;;;;;;;;5035234;28;20194;-75
2022/05/13 02:32:22;;;;;;;8.37;3.80;;;;;;;;;;5036403;28;20200;-75
2022/05/13 02:34:49;;;;;;;11.57;4.23;;;;;;;;;;5027774;28;20294;-74
2022/05/13 02:37:16;;;;;;;8.40;4.10;;;;;;;;;;5023889;28;20305;-74
2022/05/13 02:39:44;;;;;;;7.43;4.30;;;;;;;;;;5056200;22;20248;-76
2022/05/13 02:42:11;;;;;;;5.60;3.90;;;;;;;;;;5051458;28;20225;-76
2022/05/13 02:44:38;;;;;;;12.03;4.87;;;;;;;;;;5057247;28;20309;-76
2022/05/13 02:47:07;;;;;;;8.10;4.27;;;;;;;;;;5069333;28;20221;-76
2022/05/13 02:49:34;;;;;;;9.07;4.10;;;;;;;;;;5075960;28;20197;-76
2022/05/13 02:52:01;;;;;;;8.87;4.73;;;;;;;;;;5077567;28;20233;-76
2022/05/13 02:54:28;;;;;;;6.90;4.07;;;;;;;;;;5071992;28;21212;-76
2022/05/13 02:56:55;;;;;;;11.23;4.13;;;;;;;;;;5074857;28;20226;-76
2022/05/13 02:59:23;;;;;;;7.83;4.50;;;;;;;;;;5078703;28;20201;-76
2022/05/13 03:01:50;;;;;;;13.80;4.03;;;;;;;;;;5077818;28;20742;-76
2022/05/13 03:04:19;;;;;;;10.27;4.13;;;;;;;;;;5074864;28;20683;-76
2022/05/13 03:06:46;;;;;;;6.83;4.20;;;;;;;;;;5070004;28;20279;-76
2022/05/13 03:09:13;;;;;;;10.50;4.57;;;;;;;;;;5075712;28;20202;-76
2022/05/13 03:11:40;;;;;;;8.27;4.20;;;;;;;;;;5078488;28;20205;-75
2022/05/13 03:14:07;;;;;;;10.13;4.23;;;;;;;;;;5076441;28;20293;-76
2022/05/13 03:16:35;;;;;;;6.97;3.70;;;;;;;;;;5076387;28;20224;-75
2022/05/13 03:19:03;;;;;;;14.90;4.67;;;;;;;;;;5075462;28;20225;-76
2022/05/13 03:21:31;;;;;;;11.07;4.07;;;;;;;;;;5077624;28;20211;-76
2022/05/13 03:23:59;;;;;;;10.87;4.07;;;;;;;;;;5077040;28;20204;-76
2022/05/13 03:26:26;;;;;;;8.47;4.27;;;;;;;;;;5073860;28;20241;-76
2022/05/13 03:28:53;;;;;;;9.20;4.87;;;;;;;;;;5075290;28;20195;-76
2022/05/13 03:31:20;;;;;;;7.73;4.10;;;;;;;;;;5075552;28;20301;-76
2022/05/13 03:33:48;;;;;;;8.37;4.40;;;;;;;;;;5077380;28;20205;-76
2022/05/13 03:36:15;;;;;;;11.97;4.30;;;;;;;;;;5075248;28;20202;-76
2022/05/13 03:38:44;;;;;;;16.07;4.10;;;;;;;;;;5075191;28;20218;-76
2022/05/13 03:41:12;;;;;;;9.17;4.53;;;;;;;;;;5076381;28;20205;-76
2022/05/13 03:43:39;;;;;;;8.13;4.60;;;;;;;;;;5075220;28;20285;-76
2022/05/13 03:46:06;;;;;;;8.17;4.00;;;;;;;;;;5077983;28;20197;-76
2022/05/13 03:48:33;;;;;;;12.10;4.80;;;;;;;;;;5080731;28;20309;-76
2022/05/13 03:51:00;;;;;;;7.70;4.27;;;;;;;;;;5075203;28;20215;-76
2022/05/13 03:53:28;;;;;;;8.13;3.87;;;;;;;;;;5078779;28;20200;-76
2022/05/13 03:55:56;;;;;;;8.77;4.30;;;;;;;;;;5080614;28;20223;-76
2022/05/13 03:58:23;;;;;;;10.27;4.17;;;;;;;;;;5085990;28;20205;-76
2022/05/13 04:00:51;;;;;;;8.63;4.20;;;;;;;;;;5083780;28;20198;-76
2022/05/13 04:03:18;;;;;;;9.63;4.17;;;;;;;;;;5080445;28;20280;-76
2022/05/13 04:11:16;;;;;;;8.07;4.13;;;;;;;;;;5077848;28;20205;-76
2022/05/13 04:16:28;;;;;;;5.20;3.77;;;;;;;;;;5077242;28;20232;-76
2022/05/13 04:18:57;;;;;;;15.97;4.60;;;;;;;;;;5073640;28;20211;-76
2022/05/13 04:21:25;;;;;;;9.33;3.97;;;;;;;;;;5078134;28;20209;-76
2022/05/13 04:23:54;;;;;;;9.20;4.10;;;;;;;;;;5076438;28;20667;-76
2022/05/13 04:26:22;;;;;;;7.33;4.10;;;;;;;;;;5075889;28;20217;-76
2022/05/13 04:28:51;;;;;;;6.20;3.37;;;;;;;;;;5073875;28;20283;-76
2022/05/13 04:31:20;;;;;;;6.10;3.23;;;;;;;;;;5077992;28;20729;-76
2022/05/13 04:33:48;;;;;;;6.70;3.93;;;;;;;;;;5076163;28;20221;-76
2022/05/13 04:36:15;;;;;;;6.23;3.83;;;;;;;;;;5082497;28;20647;-76
2022/05/13 04:38:44;;;;;;;12.17;3.73;;;;;;;;;;5078603;28;20305;-77
2022/05/13 04:43:59;;;;;;;7.30;3.53;;;;;;;;;;5079763;28;20208;-77
2022/05/13 04:46:26;;;;;;;6.77;3.43;;;;;;;;;;5080181;28;20273;-77
2022/05/13 04:48:54;;;;;;;9.03;3.63;;;;;;;;;;5077126;28;20676;-77
2022/05/13 04:51:21;;;;;;;7.60;3.20;;;;;;;;;;5078409;28;20209;-77
2022/05/13 04:53:49;;;;;;;6.00;3.27;;;;;;;;;;5077172;28;20641;-76
2022/05/13 04:56:17;;;;;;;7.77;3.33;;;;;;;;;;5076013;28;20229;-76
2022/05/13 05:04:52;;;;;;;11.10;3.60;;;;;;;;;;5075591;28;20209;-76
2022/05/13 05:07:20;;;;;;;5.93;3.33;;;;;;;;;;5072513;28;20243;-77
2022/05/13 05:09:47;;;;;;;7.83;3.43;;;;;;;;;;5077218;28;20574;-77
2022/05/13 05:12:14;;;;;;;6.60;3.10;;;;;;;;;;5077514;28;20229;-76
2022/05/13 05:14:41;;;;;;;8.17;3.53;;;;;;;;;;5077315;28;20222;-76
2022/05/13 05:17:08;;;;;;;5.93;3.30;;;;;;;;;;5081594;28;20611;-76
2022/05/13 05:19:35;;;;;;;10.87;3.57;;;;;;;;;;5080704;28;20204;-76
2022/05/13 05:22:05;;;;;;;9.77;3.80;;;;;;;;;;5080469;28;20240;-76
2022/05/13 05:24:32;;;;;;;6.87;3.00;;;;;;;;;;5076451;28;20198;-77
2022/05/13 05:26:59;;;;;;;8.67;3.50;;;;;;;;;;5072941;28;20244;-77
2022/05/13 05:29:27;;;;;;;8.13;3.30;;;;;;;;;;5078843;28;20284;-76
2022/05/13 05:31:54;;;;;;;9.80;3.40;;;;;;;;;;5081155;28;20203;-77
2022/05/13 05:34:21;;;;;;;10.07;3.80;;;;;;;;;;5072103;28;20202;-76
2022/05/13 05:36:49;;;;;;;9.00;3.03;;;;;;;;;;5077835;28;20221;-76
2022/05/13 05:39:17;;;;;;;13.10;3.33;;;;;;;;;;5074784;28;20299;-77
2022/05/13 05:41:44;;;;;;;9.00;3.00;;;;;;;;;;5073120;28;20919;-75
2022/05/13 05:44:12;;;;;;;9.80;3.17;;;;;;;;;;5073360;28;20284;-75
2022/05/13 05:46:39;;;;;;;7.90;3.17;;;;;;;;;;5071342;28;20297;-75
2022/05/13 05:49:06;;;;;;;6.13;3.40;;;;;;;;;;5070815;28;20202;-76
2022/05/13 05:51:34;;;;;;;9.93;3.90;;;;;;;;;;5074398;28;20202;-76
2022/05/13 05:59:32;;;;;;;10.17;2.77;;;;;;;;;;5080190;28;20586;-76
2022/05/13 06:01:59;;;;;;;8.90;2.40;;;;;;;;;;5073904;28;20717;-76
2022/05/13 06:04:26;;;;;;;9.30;2.53;;;;;;;;;;5082834;28;20249;-76
2022/05/13 06:06:53;;;;;;;8.47;2.40;;;;;;;;;;5079390;28;20287;-76
2022/05/13 06:09:20;;;;;;;5.70;1.80;;;;;;;;;;5080718;28;20230;-76
2022/05/13 06:11:49;;;;;;;8.30;2.00;;;;;;;;;;5079640;28;20221;-76
2022/05/13 06:14:28;;;;;;;5.90;1.73;;;;;;;;;;5080043;28;20206;-76
2022/05/13 06:16:55;;;;;;;7.93;1.73;;;;;;;;;;5078477;28;20699;-76
2022/05/13 06:19:22;;;;;;;3.50;1.50;;;;;;;;;;5080917;28;20705;-76
2022/05/13 06:21:51;;;;;;;9.73;2.00;;;;;;;;;;5078261;28;20221;-76
2022/05/13 06:24:18;;;;;;;13.93;1.90;;;;;;;;;;5075565;28;20210;-76
2022/05/13 06:26:48;;;;;;;6.93;1.70;;;;;;;;;;5077622;28;20214;-76
2022/05/13 06:29:16;;;;;;;8.70;1.77;;;;;;;;;;5068440;28;20204;-75
2022/05/13 06:31:44;;;;;;;8.93;1.57;;;;;;;;;;5069762;28;21409;-76
2022/05/13 06:34:11;;;;;;;7.50;1.83;;;;;;;;;;5071649;28;20665;-76
2022/05/13 06:36:39;;;;;;;6.93;1.70;;;;;;;;;;5070024;28;20255;-76
2022/05/13 06:39:07;;;;;;;12.93;1.63;;;;;;;;;;5069712;28;20225;-76
2022/05/13 06:41:37;;;;;;;8.03;1.90;;;;;;;;;;5072718;28;20207;-76
2022/05/13 06:44:05;;;;;;;6.27;1.87;;;;;;;;;;5069083;28;20225;-76
2022/05/13 06:46:35;;;;;;;8.97;2.27;;;;;;;;;;5068409;28;21581;-76
2022/05/13 06:49:04;;;;;;;13.57;2.07;;;;;;;;;;5066844;28;20555;-76
2022/05/13 06:51:31;;;;;;;9.83;1.63;;;;;;;;;;5070565;28;20301;-76
2022/05/13 06:54:03;;;;;;;9.37;2.13;;;;;;;;;;5072340;28;20297;-75
2022/05/13 06:56:30;;;;;;;12.03;2.20;;;;;;;;;;5080815;28;20630;-75
2022/05/13 06:58:58;;;;;;;6.63;2.00;;;;;;;;;;5076020;28;20297;-76
2022/05/13 07:01:25;;;;;;;10.33;2.20;;;;;;;;;;5075634;28;20687;-75
2022/05/13 07:03:54;;;;;;;10.93;2.10;;;;;;;;;;5076074;28;20201;-75
2022/05/13 07:06:21;;;;;;;9.93;2.40;;;;;;;;;;5075203;28;20300;-76
2022/05/13 07:08:49;;;;;;;12.37;2.20;;;;;;;;;;5076541;28;20287;-78
2022/05/13 07:11:17;;;;;;;10.47;2.10;;;;;;;;;;5077491;28;20206;-76
2022/05/13 07:13:44;;;;;;;10.87;2.37;;;;;;;;;;5077682;28;20201;-76
2022/05/13 07:16:11;;;;;;;7.83;1.90;;;;;;;;;;5077214;28;20866;-76
2022/05/13 07:18:39;;;;;;;12.07;2.67;;;;;;;;;;5075047;28;20205;-76
2022/05/13 07:21:07;;;;;;;12.87;2.23;;;;;;;;;;5074489;28;20623;-76
2022/05/13 07:23:35;;;;;;;7.37;2.53;;;;;;;;;;5068448;28;20287;-76
2022/05/13 07:26:02;;;;;;;10.00;2.23;;;;;;;;;;5069668;28;20886;-75
2022/05/13 07:28:29;;;;;;;12.10;3.00;;;;;;;;;;5065993;28;20197;-75
2022/05/13 07:30:57;;;;;;;12.30;2.10;;;;;;;;;;5075493;28;20205;-75
2022/05/13 07:33:25;;;;;;;11.43;2.73;;;;;;;;;;5072760;28;20210;-75
2022/05/13 07:35:52;;;;;;;12.83;2.77;;;;;;;;;;5074721;28;20228;-76
2022/05/13 07:38:20;;;;;;;6.07;2.03;;;;;;;;;;5069211;28;20240;-76
2022/05/13 07:43:32;;;;;;;6.87;2.70;;;;;;;;;;5069622;28;20266;-76
2022/05/13 07:46:00;;;;;;;12.47;2.97;;;;;;;;;;5067714;28;20289;-75
2022/05/13 07:48:27;;;;;;;6.80;2.30;;;;;;;;;;5077157;28;20208;-75
2022/05/13 07:50:54;;;;;;;8.13;2.27;;;;;;;;;;5067652;28;20297;-75
2022/05/13 07:53:23;;;;;;;9.63;2.63;;;;;;;;;;5070492;28;20292;-76
2022/05/13 07:55:50;;;;;;;9.07;2.17;;;;;;;;;;5076787;28;20214;-76
2022/05/13 07:58:17;;;;;;;6.53;1.90;;;;;;;;;;5071668;28;20310;-76
2022/05/13 08:00:44;;;;;;;9.50;2.00;;;;;;;;;;5077273;28;20213;-76
2022/05/13 08:03:13;;;;;;;8.43;2.17;;;;;;;;;;5074669;28;20207;-76
2022/05/13 08:05:42;;;;;;;5.93;1.70;;;;;;;;;;5072940;28;20205;-76
2022/05/13 08:08:10;;;;;;;7.40;1.57;;;;;;;;;;5075201;28;20254;-77
2022/05/13 08:10:40;;;;;;;8.67;2.00;;;;;;;;;;5069461;28;20327;-76
2022/05/13 08:13:07;;;;;;;10.80;2.13;;;;;;;;;;5070124;28;20231;-76
2022/05/13 08:15:34;;;;;;;11.23;1.97;;;;;;;;;;5067654;28;20219;-76
2022/05/13 08:18:02;;;;;;;6.87;1.70;;;;;;;;;;5082982;28;20222;-77
2022/05/13 08:20:30;;;;;;;6.97;1.80;;;;;;;;;;5075669;28;20212;-77
2022/05/13 08:22:58;;;;;;;5.03;1.23;;;;;;;;;;5076575;28;20447;-75
2022/05/13 08:25:26;;;;;;;8.03;1.60;;;;;;;;;;5076039;28;20207;-77
2022/05/13 08:27:55;;;;;;;13.10;1.40;;;;;;;;;;5075562;28;20250;-77
2022/05/13 08:30:23;;;;;;;4.00;1.00;;;;;;;;;;5080514;28;20431;-77
2022/05/13 08:32:51;;;;;;;5.37;1.20;;;;;;;;;;5076034;28;20238;-77
2022/05/13 08:35:18;;;;;;;9.33;1.20;;;;;;;;;;5078836;28;21017;-78
2022/05/13 08:37:47;;;;;;;4.77;1.00;;;;;;;;;;5074766;28;20258;-76
2022/05/13 08:40:17;;;;;;;5.90;0.97;;;;;;;;;;5055064;22;20320;-75
2022/05/13 08:42:47;;;;;;;7.07;1.10;;;;;;;;;;5039236;28;20293;-74
2022/05/13 08:45:17;;;;;;;3.20;1.00;;;;;;;;;;5034247;28;20203;-74
2022/05/13 08:47:49;;;;;;;4.93;1.00;;;;;;;;;;5021069;28;20230;-75
2022/05/13 08:50:19;;;;;;;3.83;0.80;;;;;;;;;;5019401;28;20233;-74
2022/05/13 08:55:38;;;;;;;5.23;1.10;;;;;;;;;;5020166;28;20294;-74
2022/05/13 08:58:06;;;;;;;9.60;1.27;;;;;;;;;;5019478;28;20234;-75
2022/05/13 09:00:37;;;;;;;6.07;1.00;;;;;;;;;;5022741;28;20204;-74
2022/05/13 09:03:06;;;;;;;4.77;1.07;;;;;;;;;;5017429;28;20203;-74
2022/05/13 09:05:37;;;;;;;7.43;1.13;;;;;;;;;;5018494;28;20298;-74
2022/05/13 09:08:06;;;;;;;4.97;1.40;;;;;;;;;;5022556;28;20321;-74
2022/05/13 09:10:38;;;;;;;3.40;0.80;;;;;;;;;;5019321;28;20215;-74
2022/05/13 09:13:09;;;;;;;3.93;1.00;;;;;;;;;;5015609;28;20247;-74
2022/05/13 09:15:40;;;;;;;7.27;1.33;;;;;;;;;;5018504;28;20753;-74
2022/05/13 09:18:08;;;;;;;2.23;0.63;;;;;;;;;;5015930;28;20228;-74
2022/05/13 09:20:39;;;;;;;3.27;0.83;;;;;;;;;;5020111;28;20206;-75
2022/05/13 09:23:10;;;;;;;2.53;0.70;;;;;;;;;;5018519;28;20287;-75
2022/05/13 09:25:38;;;;;;;3.97;1.17;;;;;;;;;;5027011;28;20287;-75
2022/05/13 09:28:09;;;;;;;2.97;0.83;;;;;;;;;;5017005;28;20224;-75
2022/05/13 09:30:38;;;;;;;3.93;0.77;;;;;;;;;;5022472;28;20601;-73
2022/05/13 09:33:22;;;;;;;5.90;1.00;;;;;;;;;;5019876;28;20837;-75
2022/05/13 09:35:51;;;;;;;10.10;0.80;;;;;;;;;;5020651;28;20913;-75
2022/05/13 09:38:19;;;;;;;3.17;0.83;;;;;;;;;;5021761;28;20232;-74
2022/05/13 09:40:57;;;;;;;6.50;1.17;;;;;;;;;;5021468;28;20212;-75
2022/05/13 09:43:32;;;;;;;2.50;0.83;;;;;;;;;;5018735;28;20682;-73
2022/05/13 09:46:05;;;;;;;2.57;0.90;;;;;;;;;;5027444;28;20192;-74
2022/05/13 09:48:34;;;;;;;2.77;0.80;;;;;;;;;;5021652;28;20293;-75
2022/05/13 09:51:18;;;;;;;6.90;1.60;;;;;;;;;;5019115;28;20204;-75
2022/05/13 09:53:45;;;;;;;5.47;1.07;;;;;;;;;;5026373;28;20210;-75
2022/05/13 09:56:14;;;;;;;7.50;1.07;;;;;;;;;;5021428;28;20256;-75
2022/05/13 09:58:51;;;;;;;7.73;0.97;;;;;;;;;;5020494;28;20204;-75
2022/05/13 10:01:22;;;;;;;2.10;0.70;;;;;;;;;;5024659;28;20318;-75
2022/05/13 10:04:01;;;;;;;6.17;0.90;;;;;;;;;;5022956;28;20298;-75
2022/05/13 10:06:34;;;;;;;3.07;0.77;;;;;;;;;;5023880;28;20235;-75
2022/05/13 10:14:33;;;;;;;8.87;0.93;;;;;;;;;;5021001;28;20210;-74
2022/05/13 10:17:05;;;;;;;10.20;1.00;;;;;;;;;;5024186;28;20228;-75
2022/05/13 10:19:38;;;;;;;4.17;0.80;;;;;;;;;;5016087;28;20203;-75
2022/05/13 10:22:10;;;;;;;4.93;1.00;;;;;;;;;;5022925;28;20207;-75
2022/05/13 10:24:40;;;;;;;4.20;0.90;;;;;;;;;;5019766;28;20239;-74
2022/05/13 10:27:10;;;;;;;6.97;1.10;;;;;;;;;;5018825;28;20223;-75
2022/05/13 10:29:39;;;;;;;3.17;0.83;;;;;;;;;;5021370;28;20490;-75
2022/05/13 10:32:13;;;;;;;3.23;0.90;;;;;;;;;;5014319;28;20212;-75
2022/05/13 10:34:43;;;;;;;3.57;0.80;;;;;;;;;;5016798;28;20210;-74
2022/05/13 10:37:13;;;;;;;2.10;0.83;;;;;;;;;;5017217;28;20674;-74
2022/05/13 10:39:44;;;;;;;3.00;1.00;;;;;;;;;;5013969;28;20617;-75
2022/05/13 10:42:15;;;;;;;2.97;0.93;;;;;;;;;;5015716;28;20202;-74
2022/05/13 10:44:46;;;;;;;5.07;0.93;;;;;;;;;;5017580;28;20208;-75
2022/05/13 10:47:18;;;;;;;4.93;1.17;;;;;;;;;;5019317;28;20211;-75
2022/05/13 10:49:45;;;;;;;3.43;1.00;;;;;;;;;;5015686;28;20208;-74
2022/05/13 10:52:18;;;;;;;3.33;0.80;;;;;;;;;;5020114;28;20204;-75
2022/05/13 10:54:50;;;;;;;5.07;1.00;;;;;;;;;;5016951;28;20279;-75
2022/05/13 10:57:24;;;;;;;4.73;1.17;;;;;;;;;;5017303;28;20307;-75
2022/05/13 10:59:59;;;;;;;6.00;0.77;;;;;;;;;;5015522;28;20700;-75
2022/05/13 11:02:43;;;;;;;4.83;0.87;;;;;;;;;;5017506;28;20230;-75
2022/05/13 11:05:14;;;;;;;3.87;0.93;;;;;;;;;;5013079;28;20208;-75
2022/05/13 11:07:45;;;;;;;5.43;1.10;;;;;;;;;;5024745;28;20310;-74
2022/05/13 11:10:19;;;;;;;3.60;1.00;;;;;;;;;;5018595;28;20216;-75
2022/05/13 11:12:50;;;;;;;8.40;0.80;;;;;;;;;;5017466;28;20200;-75
2022/05/13 11:15:22;;;;;;;8.30;1.27;;;;;;;;;;5014695;28;20196;-75
2022/05/13 11:17:57;;;;;;;3.80;1.00;;;;;;;;;;5020600;28;20248;-75
2022/05/13 11:20:29;;;;;;;5.70;1.10;;;;;;;;;;5019587;28;20318;-75
2022/05/13 11:23:03;;;;;;;9.40;1.10;;;;;;;;;;5016746;28;20203;-75
2022/05/13 11:28:26;;;;;;;8.83;1.10;;;;;;;;;;5019027;28;20227;-74
2022/05/13 11:31:00;;;;;;;4.07;0.80;;;;;;;;;;5020549;28;20299;-75
2022/05/13 11:33:33;;;;;;;8.03;1.30;;;;;;;;;;5024472;28;20207;-74
2022/05/13 11:36:07;;;;;;;4.33;0.93;;;;;;;;;;5022482;28;20210;-74
2022/05/13 11:38:41;;;;;;;3.03;0.87;;;;;;;;;;5028705;28;20204;-75
2022/05/13 11:41:11;;;;;;;3.47;0.90;;;;;;;;;;5019660;28;20207;-75
2022/05/13 11:43:42;;;;;;;2.97;1.00;;;;;;;;;;5024222;28;20316;-74
2022/05/13 11:46:24;;;;;;;4.77;1.27;;;;;;;;;;5028117;28;20208;-75
2022/05/13 11:48:54;;;;;;;4.20;0.77;;;;;;;;;;5014807;28;20207;-75
2022/05/13 11:51:22;;;;;;;6.83;1.00;;;;;;;;;;5025974;28;20244;-75
2022/05/13 11:53:52;;;;;;;5.80;0.90;;;;;;;;;;5015237;28;20226;-75
2022/05/13 11:56:30;;;;;;;3.47;0.93;;;;;;;;;;5020897;28;20228;-76
2022/05/13 11:58:58;;;;;;;2.87;0.80;;;;;;;;;;5022579;28;20301;-74
2022/05/13 12:01:44;;;;;;;2.90;0.80;;;;;;;;;;5025325;28;20879;-74
2022/05/13 12:04:30;;;;;;;3.03;1.07;;;;;;;;;;5022445;28;20217;-75
2022/05/13 12:07:00;;;;;;;4.60;1.00;;;;;;;;;;5019730;28;20760;-75
2022/05/13 12:09:30;;;;;;;4.07;0.93;;;;;;;;;;5024608;28;20602;-75
2022/05/13 12:12:03;;;;;;;3.60;0.93;;;;;;;;;;5020098;28;20243;-75
2022/05/13 12:14:33;;;;;;;3.27;0.87;;;;;;;;;;5022060;28;20832;-74
2022/05/13 12:17:06;;;;;;;6.40;1.00;;;;;;;;;;5021158;28;20608;-75
2022/05/13 12:19:39;;;;;;;3.53;1.03;;;;;;;;;;5024201;28;20211;-74
2022/05/13 12:22:10;;;;;;;1.30;0.80;;;;;;;;;;5025717;28;20289;-75
2022/05/13 12:24:57;;;;;;;4.83;1.00;;;;;;;;;;5026881;28;20669;-75
2022/05/13 12:27:42;;;;;;;6.67;1.03;;;;;;;;;;5018910;28;20322;-75
2022/05/13 12:30:29;;;;;;;3.33;1.00;;;;;;;;;;5022751;28;20584;-75
2022/05/13 12:32:57;;;;;;;6.17;0.90;;;;;;;;;;5021858;28;20217;-76
2022/05/13 12:38:19;;;;;;;4.83;0.90;;;;;;;;;;5023726;28;20528;-74
2022/05/13 12:40:52;;;;;;;4.97;0.83;;;;;;;;;;5019222;28;20211;-75
2022/05/13 12:43:21;;;;;;;3.97;0.97;;;;;;;;;;5016238;28;20299;-75
2022/05/13 12:46:14;;;;;;;1.70;0.83;;;;;;;;;;5022782;28;20303;-74
2022/05/13 12:48:55;;;;;;;3.93;0.80;;;;;;;;;;5023654;28;20262;-74
2022/05/13 12:51:22;;;;;;;5.27;1.10;;;;;;;;;;5020191;28;20212;-74
2022/05/13 12:53:53;;;;;;;3.93;1.10;;;;;;;;;;5023447;28;20205;-73
2022/05/13 12:56:37;;;;;;;4.93;0.80;;;;;;;;;;5023329;28;20228;-74
2022/05/13 12:59:08;;;;;;;8.27;1.10;;;;;;;;;;5025871;28;20570;-74
2022/05/13 13:01:36;;;;;;;6.60;0.90;;;;;;;;;;5020098;28;20270;-74
2022/05/13 13:04:03;;;;;;;4.60;1.10;;;;;;;;;;5017254;28;20295;-74
2022/05/13 13:06:39;;;;;;;4.47;1.00;;;;;;;;;;5021731;28;20293;-74
2022/05/13 13:09:12;;;;;;;2.50;0.83;;;;;;;;;;5024092;28;20217;-74
2022/05/13 13:11:43;;;;;;;4.40;0.93;;;;;;;;;;5020162;28;20200;-74
2022/05/13 13:14:14;;;;;;;6.37;1.03;;;;;;;;;;5016887;28;20293;-74
2022/05/13 13:16:43;;;;;;;4.33;1.03;;;;;;;;;;5020246;28;20319;-74
2022/05/13 13:19:12;;;;;;;3.63;1.27;;;;;;;;;;5017024;28;20298;-74
2022/05/13 13:21:39;;;;;;;5.93;0.70;;;;;;;;;;5013300;28;20681;-74
2022/05/13 13:24:19;;;;;;;7.20;0.90;;;;;;;;;;5011547;28;20211;-74
2022/05/13 13:26:48;;;;;;;3.33;1.00;;;;;;;;;;5015407;28;20246;-74
2022/05/13 13:29:18;;;;;;;5.07;0.80;;;;;;;;;;5016187;28;20204;-74
2022/05/13 13:31:48;;;;;;;4.53;1.13;;;;;;;;;;5013433;28;20272;-75
2022/05/13 13:34:26;;;;;;;3.73;1.10;;;;;;;;;;5018188;28;20881;-74
2022/05/13 13:36:54;;;;;;;4.03;0.70;;;;;;;;;;5023675;28;20793;-74
2022/05/13 13:39:27;;;;;;;4.37;0.80;;;;;;;;;;5020963;28;20294;-74
2022/05/13 13:41:59;;;;;;;5.13;1.20;;;;;;;;;;5017936;28;20206;-74
2022/05/13 13:44:26;;;;;;;2.00;0.90;;;;;;;;;;5023998;28;20290;-74
2022/05/13 13:46:53;;;;;;;2.70;0.90;;;;;;;;;;5019714;28;20305;-74
2022/05/13 13:49:26;;;;;;;5.47;1.20;;;;;;;;;;5014244;28;20295;-73
2022/05/13 13:51:55;;;;;;;5.43;1.03;;;;;;;;;;5019378;28;20289;-74
2022/05/13 13:54:26;;;;;;;4.87;1.10;;;;;;;;;;5016418;28;20254;-74
2022/05/13 13:56:57;;;;;;;5.37;1.23;;;;;;;;;;5020230;28;20618;-74
2022/05/13 13:59:27;;;;;;;8.27;1.23;;;;;;;;;;5012461;28;20338;-74
2022/05/13 14:01:55;;;;;;;5.63;1.20;;;;;;;;;;5021260;28;20545;-74
2022/05/13 14:04:24;;;;;;;5.07;0.83;;;;;;;;;;5012161;28;20212;-74
2022/05/13 14:06:52;;;;;;;4.37;1.07;;;;;;;;;;5018501;28;20238;-74
2022/05/13 14:09:21;;;;;;;4.80;1.10;;;;;;;;;;5017914;28;20270;-74
2022/05/13 14:11:50;;;;;;;4.40;0.87;;;;;;;;;;5010431;28;20288;-74
2022/05/13 14:14:18;;;;;;;3.40;1.10;;;;;;;;;;5006476;28;20208;-74
2022/05/13 14:16:50;;;;;;;4.63;1.00;;;;;;;;;;5007232;28;20670;-74
2022/05/13 14:19:21;;;;;;;8.50;1.90;;;;;;;;;;5006457;28;20227;-75
2022/05/13 14:21:49;;;;;;;4.97;1.33;;;;;;;;;;5012999;28;20204;-74
2022/05/13 14:24:29;;;;;;;3.03;1.47;;;;;;;;;;5004471;28;20200;-74
2022/05/13 14:27:00;;;;;;;13.17;2.97;;;;;;;;;;5005702;28;20755;-74
2022/05/13 14:29:28;;;;;;;5.47;1.10;;;;;;;;;;5004675;28;20693;-74
2022/05/13 14:31:56;;;;;;;3.83;1.33;;;;;;;;;;5004541;28;20287;-74
2022/05/13 14:34:24;;;;;;;1.97;1.00;;;;;;;;;;5001096;28;20207;-74
2022/05/13 14:36:56;;;;;;;8.87;2.60;;;;;;;;;;5007013;28;20224;-74
2022/05/13 14:42:14;;;;;;;4.53;1.20;;;;;;;;;;5010274;28;20242;-74
2022/05/13 14:44:43;;;;;;;7.53;1.57;;;;;;;;;;5007516;28;20199;-74
2022/05/13 14:47:16;;;;;;;4.07;1.20;;;;;;;;;;5005065;28;20311;-74
2022/05/13 14:49:51;;;;;;;5.33;1.00;;;;;;;;;;5005371;28;20204;-75
2022/05/13 14:52:21;;;;;;;6.10;1.17;;;;;;;;;;5007090;28;20199;-74
2022/05/13 14:54:48;;;;;;;2.97;0.90;;;;;;;;;;5011111;28;20558;-74
2022/05/13 14:57:19;;;;;;;5.37;1.47;;;;;;;;;;5008948;28;20307;-74
2022/05/13 14:59:52;;;;;;;3.43;1.00;;;;;;;;;;5006790;28;20211;-74
2022/05/13 15:02:28;;;;;;;3.07;1.20;;;;;;;;;;5011620;28;21020;-75
2022/05/13 15:04:57;;;;;;;3.80;1.00;;;;;;;;;;5004829;28;20207;-75
2022/05/13 15:07:38;;;;;;;6.13;0.90;;;;;;;;;;5005914;28;20224;-75
2022/05/13 15:10:07;;;;;;;6.10;1.20;;;;;;;;;;5010128;28;20204;-75
2022/05/13 15:12:35;;;;;;;3.63;0.90;;;;;;;;;;5004663;28;20557;-74
2022/05/13 15:15:03;;;;;;;5.57;1.10;;;;;;;;;;5004589;28;20250;-75
2022/05/13 15:17:36;;;;;;;11.83;1.47;;;;;;;;;;5007212;28;20259;-74
2022/05/13 15:20:03;;;;;;;9.60;1.23;;;;;;;;;;5011158;28;20230;-75
2022/05/13 15:22:30;;;;;;;4.93;0.90;;;;;;;;;;4999553;28;20674;-75
2022/05/13 15:24:58;;;;;;;5.97;1.30;;;;;;;;;;5004743;28;20236;-75
2022/05/13 15:27:26;;;;;;;4.27;0.90;;;;;;;;;;5002826;28;20710;-75
2022/05/13 15:29:56;;;;;;;4.33;1.10;;;;;;;;;;5001719;28;20298;-75
2022/05/13 15:32:24;;;;;;;7.83;1.17;;;;;;;;;;5003774;28;20674;-75
2022/05/13 15:34:51;;;;;;;5.43;1.00;;;;;;;;;;5003910;28;20295;-74
2022/05/13 15:37:21;;;;;;;7.00;1.00;;;;;;;;;;5002703;28;20224;-74
2022/05/13 15:39:49;;;;;;;1.47;0.70;;;;;;;;;;5005191;28;20216;-75
2022/05/13 15:42:16;;;;;;;6.60;1.20;;;;;;;;;;5007489;28;20208;-75
2022/05/13 15:44:44;;;;;;;3.57;1.10;;;;;;;;;;5001510;28;20208;-75
2022/05/13 15:47:15;;;;;;;10.07;0.90;;;;;;;;;;5006757;28;20228;-75
2022/05/13 15:52:42;;;;;;;6.27;1.00;;;;;;;;;;5000063;28;20241;-74
2022/05/13 15:55:09;;;;;;;7.23;1.10;;;;;;;;;;5014002;28;20321;-75
2022/05/13 15:57:38;;;;;;;5.20;1.40;;;;;;;;;;5017595;28;20709;-75
2022/05/13 16:00:09;;;;;;;6.50;1.17;;;;;;;;;;5009327;28;20657;-75
2022/05/13 16:02:37;;;;;;;5.33;1.20;;;;;;;;;;5014183;28;20212;-75
2022/05/13 16:05:06;;;;;;;3.10;1.00;;;;;;;;;;5016510;28;20207;-75
2022/05/13 16:07:34;;;;;;;3.20;1.13;;;;;;;;;;5018716;28;20219;-74